sensor_id;sensor_type;location;lat;lon;timestamp;P1;durP1;ratioP1;P2;durP2;ratioP2
47335;SDS011;33068;51.990;5.926;2023-03-21T00:00:25;43.20;;;22.65;;
47335;SDS011;33068;51.990;5.926;2023-03-21T00:02:56;45.35;;;24.15;;
47335;SDS011;33068;51.990;5.926;2023-03-21T00:05:23;48.08;;;25.30;;
47335;SDS011;33068;51.990;5.926;2023-03-21T00:07:56;53.85;;;25.63;;
47335;SDS011;33068;51.990;5.926;2023-03-21T00:10:25;59.97;;;25.88;;
47335;SDS011;33068;51.990;5.926;2023-03-21T00:12:52;50.38;;;25.48;;
47335;SDS011;33068;51.990;5.926;2023-03-21T00:15:25;44.92;;;26.17;;
47335;SDS011;33068;51.990;5.926;2023-03-21T00:17:53;52.30;;;26.42;;
47335;SDS011;33068;51.990;5.926;2023-03-21T00:20:28;55.38;;;26.67;;
47335;SDS011;33068;51.990;5.926;2023-03-21T00:22:58;54.47;;;27.85;;
47335;SDS011;33068;51.990;5.926;2023-03-21T00:25:29;60.00;;;28.27;;
47335;SDS011;33068;51.990;5.926;2023-03-21T00:27:57;65.65;;;29.48;;
47335;SDS011;33068;51.990;5.926;2023-03-21T00:30:24;55.80;;;28.77;;
47335;SDS011;33068;51.990;5.926;2023-03-21T00:32:51;62.33;;;30.27;;
47335;SDS011;33068;51.990;5.926;2023-03-21T00:35:20;65.57;;;31.52;;
47335;SDS011;33068;51.990;5.926;2023-03-21T00:37:47;58.70;;;30.75;;
47335;SDS011;33068;51.990;5.926;2023-03-21T00:40:15;62.30;;;29.42;;
47335;SDS011;33068;51.990;5.926;2023-03-21T00:42:43;52.22;;;28.73;;
47335;SDS011;33068;51.990;5.926;2023-03-21T00:45:10;62.53;;;29.52;;
47335;SDS011;33068;51.990;5.926;2023-03-21T00:47:38;55.60;;;28.83;;
47335;SDS011;33068;51.990;5.926;2023-03-21T00:50:05;53.50;;;29.90;;
47335;SDS011;33068;51.990;5.926;2023-03-21T00:52:35;56.60;;;28.45;;
47335;SDS011;33068;51.990;5.926;2023-03-21T00:55:05;58.00;;;30.25;;
47335;SDS011;33068;51.990;5.926;2023-03-21T00:57:39;59.00;;;28.67;;
47335;SDS011;33068;51.990;5.926;2023-03-21T01:00:10;60.28;;;28.55;;
47335;SDS011;33068;51.990;5.926;2023-03-21T01:02:39;55.30;;;28.83;;
47335;SDS011;33068;51.990;5.926;2023-03-21T01:05:21;53.08;;;27.80;;
47335;SDS011;33068;51.990;5.926;2023-03-21T01:08:10;48.72;;;27.13;;
47335;SDS011;33068;51.990;5.926;2023-03-21T01:10:41;50.53;;;26.70;;
47335;SDS011;33068;51.990;5.926;2023-03-21T01:13:11;46.47;;;25.15;;
47335;SDS011;33068;51.990;5.926;2023-03-21T01:15:41;50.20;;;27.63;;
47335;SDS011;33068;51.990;5.926;2023-03-21T01:18:13;49.30;;;25.63;;
47335;SDS011;33068;51.990;5.926;2023-03-21T01:20:45;52.70;;;26.17;;
47335;SDS011;33068;51.990;5.926;2023-03-21T01:23:15;51.20;;;25.77;;
47335;SDS011;33068;51.990;5.926;2023-03-21T01:25:43;50.50;;;26.23;;
47335;SDS011;33068;51.990;5.926;2023-03-21T01:28:14;46.63;;;26.05;;
47335;SDS011;33068;51.990;5.926;2023-03-21T01:30:43;59.13;;;27.60;;
47335;SDS011;33068;51.990;5.926;2023-03-21T01:33:11;45.72;;;25.20;;
47335;SDS011;33068;51.990;5.926;2023-03-21T01:35:43;46.78;;;27.08;;
47335;SDS011;33068;51.990;5.926;2023-03-21T01:38:11;48.95;;;26.73;;
47335;SDS011;33068;51.990;5.926;2023-03-21T01:40:44;48.45;;;26.55;;
47335;SDS011;33068;51.990;5.926;2023-03-21T01:43:34;44.42;;;24.20;;
47335;SDS011;33068;51.990;5.926;2023-03-21T01:49:14;50.03;;;25.77;;
47335;SDS011;33068;51.990;5.926;2023-03-21T01:51:49;46.25;;;24.63;;
47335;SDS011;33068;51.990;5.926;2023-03-21T01:54:20;49.63;;;23.90;;
47335;SDS011;33068;51.990;5.926;2023-03-21T01:56:53;42.22;;;23.02;;
47335;SDS011;33068;51.990;5.926;2023-03-21T01:59:24;41.13;;;23.70;;
47335;SDS011;33068;51.990;5.926;2023-03-21T02:02:04;50.53;;;24.98;;
47335;SDS011;33068;51.990;5.926;2023-03-21T02:04:48;42.40;;;23.20;;
47335;SDS011;33068;51.990;5.926;2023-03-21T02:07:23;39.80;;;23.58;;
47335;SDS011;33068;51.990;5.926;2023-03-21T02:10:06;48.55;;;24.90;;
47335;SDS011;33068;51.990;5.926;2023-03-21T02:12:43;53.50;;;24.77;;
47335;SDS011;33068;51.990;5.926;2023-03-21T02:15:11;46.17;;;24.63;;
47335;SDS011;33068;51.990;5.926;2023-03-21T02:17:52;43.45;;;24.73;;
47335;SDS011;33068;51.990;5.926;2023-03-21T02:24:08;49.38;;;25.38;;
47335;SDS011;33068;51.990;5.926;2023-03-21T02:26:59;48.65;;;26.20;;
47335;SDS011;33068;51.990;5.926;2023-03-21T02:29:42;49.47;;;25.13;;
47335;SDS011;33068;51.990;5.926;2023-03-21T02:32:39;49.70;;;26.73;;
47335;SDS011;33068;51.990;5.926;2023-03-21T02:35:33;49.38;;;25.40;;
47335;SDS011;33068;51.990;5.926;2023-03-21T02:38:19;45.72;;;24.92;;
47335;SDS011;33068;51.990;5.926;2023-03-21T02:40:55;46.35;;;25.40;;
47335;SDS011;33068;51.990;5.926;2023-03-21T02:43:30;53.60;;;27.10;;
47335;SDS011;33068;51.990;5.926;2023-03-21T02:46:06;44.75;;;25.77;;
47335;SDS011;33068;51.990;5.926;2023-03-21T02:48:38;48.45;;;25.48;;
47335;SDS011;33068;51.990;5.926;2023-03-21T02:51:13;51.00;;;26.10;;
47335;SDS011;33068;51.990;5.926;2023-03-21T02:53:46;44.38;;;24.88;;
47335;SDS011;33068;51.990;5.926;2023-03-21T02:56:20;43.30;;;25.25;;
47335;SDS011;33068;51.990;5.926;2023-03-21T02:58:56;46.85;;;25.35;;
47335;SDS011;33068;51.990;5.926;2023-03-21T03:01:25;45.38;;;26.63;;
47335;SDS011;33068;51.990;5.926;2023-03-21T03:03:53;48.08;;;27.55;;
47335;SDS011;33068;51.990;5.926;2023-03-21T03:06:29;42.53;;;24.65;;
47335;SDS011;33068;51.990;5.926;2023-03-21T03:09:13;47.30;;;25.15;;
47335;SDS011;33068;51.990;5.926;2023-03-21T03:11:50;50.72;;;27.63;;
47335;SDS011;33068;51.990;5.926;2023-03-21T03:14:31;44.80;;;26.08;;
47335;SDS011;33068;51.990;5.926;2023-03-21T03:20:12;43.22;;;25.38;;
47335;SDS011;33068;51.990;5.926;2023-03-21T03:23:03;44.25;;;25.00;;
47335;SDS011;33068;51.990;5.926;2023-03-21T03:25:42;44.47;;;25.95;;
47335;SDS011;33068;51.990;5.926;2023-03-21T03:28:15;42.45;;;23.73;;
47335;SDS011;33068;51.990;5.926;2023-03-21T03:30:49;48.92;;;26.42;;
47335;SDS011;33068;51.990;5.926;2023-03-21T03:33:24;45.72;;;24.92;;
47335;SDS011;33068;51.990;5.926;2023-03-21T03:35:53;47.85;;;24.25;;
47335;SDS011;33068;51.990;5.926;2023-03-21T03:38:23;48.58;;;25.08;;
47335;SDS011;33068;51.990;5.926;2023-03-21T03:40:56;51.05;;;25.83;;
47335;SDS011;33068;51.990;5.926;2023-03-21T03:43:42;52.67;;;26.15;;
47335;SDS011;33068;51.990;5.926;2023-03-21T03:46:16;49.53;;;26.30;;
47335;SDS011;33068;51.990;5.926;2023-03-21T03:48:46;48.90;;;24.70;;
47335;SDS011;33068;51.990;5.926;2023-03-21T03:51:16;48.65;;;23.52;;
47335;SDS011;33068;51.990;5.926;2023-03-21T03:54:15;46.15;;;23.73;;
47335;SDS011;33068;51.990;5.926;2023-03-21T03:56:48;47.30;;;23.17;;
47335;SDS011;33068;51.990;5.926;2023-03-21T03:59:18;41.90;;;22.13;;
47335;SDS011;33068;51.990;5.926;2023-03-21T04:02:06;49.25;;;21.60;;
47335;SDS011;33068;51.990;5.926;2023-03-21T04:04:33;40.60;;;20.80;;
47335;SDS011;33068;51.990;5.926;2023-03-21T04:07:01;49.53;;;21.35;;
47335;SDS011;33068;51.990;5.926;2023-03-21T04:09:28;45.28;;;21.63;;
47335;SDS011;33068;51.990;5.926;2023-03-21T04:11:57;42.88;;;18.60;;
47335;SDS011;33068;51.990;5.926;2023-03-21T04:14:24;36.20;;;18.00;;
47335;SDS011;33068;51.990;5.926;2023-03-21T04:16:52;39.00;;;18.50;;
47335;SDS011;33068;51.990;5.926;2023-03-21T04:19:20;37.50;;;18.33;;
47335;SDS011;33068;51.990;5.926;2023-03-21T04:21:51;35.63;;;17.27;;
47335;SDS011;33068;51.990;5.926;2023-03-21T04:24:18;42.22;;;17.65;;
47335;SDS011;33068;51.990;5.926;2023-03-21T04:26:47;37.55;;;16.92;;
47335;SDS011;33068;51.990;5.926;2023-03-21T04:29:35;40.75;;;16.35;;
47335;SDS011;33068;51.990;5.926;2023-03-21T04:32:21;35.65;;;16.63;;
47335;SDS011;33068;51.990;5.926;2023-03-21T04:34:57;30.63;;;16.00;;
47335;SDS011;33068;51.990;5.926;2023-03-21T04:37:24;35.65;;;16.08;;
47335;SDS011;33068;51.990;5.926;2023-03-21T04:39:53;42.47;;;16.67;;
47335;SDS011;33068;51.990;5.926;2023-03-21T04:42:20;32.20;;;16.00;;
47335;SDS011;33068;51.990;5.926;2023-03-21T04:44:49;29.73;;;14.73;;
47335;SDS011;33068;51.990;5.926;2023-03-21T04:47:16;34.28;;;15.57;;
47335;SDS011;33068;51.990;5.926;2023-03-21T04:49:45;28.73;;;15.10;;
47335;SDS011;33068;51.990;5.926;2023-03-21T04:52:13;32.75;;;15.00;;
47335;SDS011;33068;51.990;5.926;2023-03-21T04:54:41;39.83;;;16.27;;
47335;SDS011;33068;51.990;5.926;2023-03-21T04:57:08;30.15;;;14.93;;
47335;SDS011;33068;51.990;5.926;2023-03-21T04:59:35;27.60;;;13.80;;
47335;SDS011;33068;51.990;5.926;2023-03-21T05:02:04;36.42;;;15.75;;
47335;SDS011;33068;51.990;5.926;2023-03-21T05:04:31;34.95;;;14.85;;
47335;SDS011;33068;51.990;5.926;2023-03-21T05:06:58;37.60;;;15.73;;
47335;SDS011;33068;51.990;5.926;2023-03-21T05:09:29;27.73;;;15.32;;
47335;SDS011;33068;51.990;5.926;2023-03-21T05:11:57;30.33;;;14.13;;
47335;SDS011;33068;51.990;5.926;2023-03-21T05:14:25;38.72;;;14.43;;
47335;SDS011;33068;51.990;5.926;2023-03-21T05:16:52;28.98;;;15.30;;
47335;SDS011;33068;51.990;5.926;2023-03-21T05:19:25;34.03;;;14.38;;
47335;SDS011;33068;51.990;5.926;2023-03-21T05:21:59;29.20;;;15.27;;
47335;SDS011;33068;51.990;5.926;2023-03-21T05:24:29;28.27;;;13.95;;
47335;SDS011;33068;51.990;5.926;2023-03-21T05:26:58;31.23;;;14.90;;
47335;SDS011;33068;51.990;5.926;2023-03-21T05:29:29;30.60;;;14.07;;
47335;SDS011;33068;51.990;5.926;2023-03-21T05:32:04;31.50;;;14.52;;
47335;SDS011;33068;51.990;5.926;2023-03-21T05:34:35;32.33;;;14.90;;
47335;SDS011;33068;51.990;5.926;2023-03-21T05:37:03;34.97;;;14.07;;
47335;SDS011;33068;51.990;5.926;2023-03-21T05:39:45;31.92;;;14.50;;
47335;SDS011;33068;51.990;5.926;2023-03-21T05:42:20;33.65;;;14.88;;
47335;SDS011;33068;51.990;5.926;2023-03-21T05:44:52;37.20;;;14.18;;
47335;SDS011;33068;51.990;5.926;2023-03-21T05:47:41;37.28;;;14.43;;
47335;SDS011;33068;51.990;5.926;2023-03-21T05:50:12;34.30;;;14.93;;
47335;SDS011;33068;51.990;5.926;2023-03-21T05:52:50;30.90;;;14.77;;
47335;SDS011;33068;51.990;5.926;2023-03-21T05:55:46;32.92;;;14.57;;
47335;SDS011;33068;51.990;5.926;2023-03-21T05:58:38;36.63;;;16.75;;
47335;SDS011;33068;51.990;5.926;2023-03-21T06:01:23;32.90;;;15.48;;
47335;SDS011;33068;51.990;5.926;2023-03-21T06:04:07;33.08;;;14.98;;
47335;SDS011;33068;51.990;5.926;2023-03-21T06:09:29;33.67;;;14.65;;
47335;SDS011;33068;51.990;5.926;2023-03-21T06:12:01;29.98;;;14.55;;
47335;SDS011;33068;51.990;5.926;2023-03-21T06:14:51;41.20;;;14.70;;
47335;SDS011;33068;51.990;5.926;2023-03-21T06:17:33;30.90;;;15.68;;
47335;SDS011;33068;51.990;5.926;2023-03-21T06:22:49;37.60;;;15.20;;
47335;SDS011;33068;51.990;5.926;2023-03-21T06:25:18;32.38;;;14.88;;
47335;SDS011;33068;51.990;5.926;2023-03-21T06:27:46;34.75;;;14.80;;
47335;SDS011;33068;51.990;5.926;2023-03-21T06:30:13;32.00;;;14.95;;
47335;SDS011;33068;51.990;5.926;2023-03-21T06:32:53;32.83;;;15.57;;
47335;SDS011;33068;51.990;5.926;2023-03-21T06:35:25;36.20;;;15.55;;
47335;SDS011;33068;51.990;5.926;2023-03-21T06:37:54;36.80;;;15.45;;
47335;SDS011;33068;51.990;5.926;2023-03-21T06:40:23;35.70;;;15.07;;
47335;SDS011;33068;51.990;5.926;2023-03-21T06:42:51;37.15;;;14.73;;
47335;SDS011;33068;51.990;5.926;2023-03-21T06:45:18;33.28;;;13.23;;
47335;SDS011;33068;51.990;5.926;2023-03-21T06:47:45;33.55;;;14.35;;
47335;SDS011;33068;51.990;5.926;2023-03-21T06:50:26;34.67;;;14.35;;
47335;SDS011;33068;51.990;5.926;2023-03-21T06:52:58;25.10;;;13.68;;
47335;SDS011;33068;51.990;5.926;2023-03-21T06:55:31;35.55;;;14.30;;
47335;SDS011;33068;51.990;5.926;2023-03-21T06:58:01;25.10;;;12.85;;
47335;SDS011;33068;51.990;5.926;2023-03-21T07:00:28;28.17;;;13.98;;
47335;SDS011;33068;51.990;5.926;2023-03-21T07:03:02;26.98;;;12.32;;
47335;SDS011;33068;51.990;5.926;2023-03-21T07:06:04;27.70;;;13.40;;
47335;SDS011;33068;51.990;5.926;2023-03-21T07:08:34;28.08;;;12.35;;
47335;SDS011;33068;51.990;5.926;2023-03-21T07:11:01;36.40;;;12.68;;
47335;SDS011;33068;51.990;5.926;2023-03-21T07:13:34;26.70;;;11.35;;
47335;SDS011;33068;51.990;5.926;2023-03-21T07:16:03;23.92;;;11.75;;
47335;SDS011;33068;51.990;5.926;2023-03-21T07:18:31;30.70;;;12.35;;
47335;SDS011;33068;51.990;5.926;2023-03-21T07:21:02;27.20;;;12.23;;
47335;SDS011;33068;51.990;5.926;2023-03-21T07:23:33;25.42;;;12.27;;
47335;SDS011;33068;51.990;5.926;2023-03-21T07:26:11;20.92;;;11.25;;
47335;SDS011;33068;51.990;5.926;2023-03-21T07:28:42;28.90;;;11.18;;
47335;SDS011;33068;51.990;5.926;2023-03-21T07:31:11;23.75;;;11.65;;
47335;SDS011;33068;51.990;5.926;2023-03-21T07:33:40;22.00;;;10.55;;
47335;SDS011;33068;51.990;5.926;2023-03-21T07:36:09;20.83;;;10.93;;
47335;SDS011;33068;51.990;5.926;2023-03-21T07:38:41;20.95;;;11.50;;
47335;SDS011;33068;51.990;5.926;2023-03-21T07:41:09;24.73;;;10.25;;
47335;SDS011;33068;51.990;5.926;2023-03-21T07:43:37;21.35;;;10.52;;
47335;SDS011;33068;51.990;5.926;2023-03-21T07:46:07;19.92;;;10.88;;
47335;SDS011;33068;51.990;5.926;2023-03-21T07:48:35;25.88;;;11.43;;
47335;SDS011;33068;51.990;5.926;2023-03-21T07:51:04;21.98;;;9.73;;
47335;SDS011;33068;51.990;5.926;2023-03-21T07:53:33;26.90;;;10.57;;
47335;SDS011;33068;51.990;5.926;2023-03-21T07:56:07;25.58;;;10.23;;
47335;SDS011;33068;51.990;5.926;2023-03-21T07:58:38;27.58;;;10.80;;
47335;SDS011;33068;51.990;5.926;2023-03-21T08:01:05;27.95;;;10.40;;
47335;SDS011;33068;51.990;5.926;2023-03-21T08:03:33;20.95;;;10.32;;
47335;SDS011;33068;51.990;5.926;2023-03-21T08:06:00;25.88;;;10.60;;
47335;SDS011;33068;51.990;5.926;2023-03-21T08:08:27;19.35;;;10.75;;
47335;SDS011;33068;51.990;5.926;2023-03-21T08:10:54;33.10;;;10.80;;
47335;SDS011;33068;51.990;5.926;2023-03-21T08:13:26;18.20;;;9.70;;
47335;SDS011;33068;51.990;5.926;2023-03-21T08:15:56;26.92;;;10.18;;
47335;SDS011;33068;51.990;5.926;2023-03-21T08:18:23;21.77;;;9.77;;
47335;SDS011;33068;51.990;5.926;2023-03-21T08:20:50;21.90;;;9.27;;
47335;SDS011;33068;51.990;5.926;2023-03-21T08:23:21;23.70;;;7.75;;
47335;SDS011;33068;51.990;5.926;2023-03-21T08:25:50;23.15;;;9.13;;
47335;SDS011;33068;51.990;5.926;2023-03-21T08:28:21;18.20;;;9.80;;
47335;SDS011;33068;51.990;5.926;2023-03-21T08:30:50;19.02;;;8.90;;
47335;SDS011;33068;51.990;5.926;2023-03-21T08:33:18;20.48;;;10.07;;
47335;SDS011;33068;51.990;5.926;2023-03-21T08:35:53;25.40;;;10.52;;
47335;SDS011;33068;51.990;5.926;2023-03-21T08:38:29;19.55;;;9.35;;
47335;SDS011;33068;51.990;5.926;2023-03-21T08:40:57;22.55;;;10.48;;
47335;SDS011;33068;51.990;5.926;2023-03-21T08:43:27;28.38;;;9.73;;
47335;SDS011;33068;51.990;5.926;2023-03-21T08:45:57;22.73;;;10.02;;
47335;SDS011;33068;51.990;5.926;2023-03-21T08:48:24;24.42;;;9.48;;
47335;SDS011;33068;51.990;5.926;2023-03-21T08:50:54;23.77;;;8.95;;
47335;SDS011;33068;51.990;5.926;2023-03-21T08:53:21;23.33;;;8.88;;
47335;SDS011;33068;51.990;5.926;2023-03-21T08:55:48;25.10;;;10.25;;
47335;SDS011;33068;51.990;5.926;2023-03-21T08:58:16;27.52;;;8.75;;
47335;SDS011;33068;51.990;5.926;2023-03-21T09:00:43;28.48;;;9.38;;
47335;SDS011;33068;51.990;5.926;2023-03-21T09:03:13;17.02;;;8.50;;
47335;SDS011;33068;51.990;5.926;2023-03-21T09:05:43;22.27;;;9.77;;
47335;SDS011;33068;51.990;5.926;2023-03-21T09:08:11;21.95;;;9.65;;
47335;SDS011;33068;51.990;5.926;2023-03-21T09:10:38;22.95;;;9.82;;
47335;SDS011;33068;51.990;5.926;2023-03-21T09:13:09;23.65;;;9.32;;
47335;SDS011;33068;51.990;5.926;2023-03-21T09:15:36;22.42;;;9.13;;
47335;SDS011;33068;51.990;5.926;2023-03-21T09:18:03;18.20;;;9.05;;
47335;SDS011;33068;51.990;5.926;2023-03-21T09:20:41;21.13;;;9.07;;
47335;SDS011;33068;51.990;5.926;2023-03-21T09:23:08;23.42;;;9.63;;
47335;SDS011;33068;51.990;5.926;2023-03-21T09:25:36;24.83;;;8.77;;
47335;SDS011;33068;51.990;5.926;2023-03-21T09:28:03;26.60;;;9.10;;
47335;SDS011;33068;51.990;5.926;2023-03-21T09:30:32;27.30;;;9.20;;
47335;SDS011;33068;51.990;5.926;2023-03-21T09:33:01;23.55;;;9.73;;
47335;SDS011;33068;51.990;5.926;2023-03-21T09:35:30;23.38;;;10.40;;
47335;SDS011;33068;51.990;5.926;2023-03-21T09:38:00;27.80;;;9.98;;
47335;SDS011;33068;51.990;5.926;2023-03-21T09:40:30;22.67;;;9.50;;
47335;SDS011;33068;51.990;5.926;2023-03-21T09:43:15;20.92;;;9.70;;
47335;SDS011;33068;51.990;5.926;2023-03-21T09:46:13;23.40;;;9.88;;
47335;SDS011;33068;51.990;5.926;2023-03-21T09:49:04;20.38;;;9.23;;
47335;SDS011;33068;51.990;5.926;2023-03-21T09:51:47;15.63;;;8.18;;
47335;SDS011;33068;51.990;5.926;2023-03-21T09:54:22;18.10;;;8.48;;
47335;SDS011;33068;51.990;5.926;2023-03-21T09:56:53;19.80;;;7.90;;
47335;SDS011;33068;51.990;5.926;2023-03-21T09:59:24;21.75;;;8.30;;
47335;SDS011;33068;51.990;5.926;2023-03-21T10:01:55;17.27;;;7.82;;
47335;SDS011;33068;51.990;5.926;2023-03-21T10:04:24;18.70;;;8.95;;
47335;SDS011;33068;51.990;5.926;2023-03-21T10:06:53;16.23;;;8.75;;
47335;SDS011;33068;51.990;5.926;2023-03-21T10:09:28;16.95;;;8.10;;
47335;SDS011;33068;51.990;5.926;2023-03-21T10:11:59;12.57;;;8.35;;
47335;SDS011;33068;51.990;5.926;2023-03-21T10:14:33;15.90;;;8.10;;
47335;SDS011;33068;51.990;5.926;2023-03-21T10:17:10;19.63;;;7.88;;
47335;SDS011;33068;51.990;5.926;2023-03-21T10:19:47;13.50;;;7.38;;
47335;SDS011;33068;51.990;5.926;2023-03-21T10:22:20;12.63;;;7.65;;
47335;SDS011;33068;51.990;5.926;2023-03-21T10:24:50;21.70;;;7.63;;
47335;SDS011;33068;51.990;5.926;2023-03-21T10:27:18;18.60;;;7.03;;
47335;SDS011;33068;51.990;5.926;2023-03-21T10:29:45;16.88;;;7.30;;
47335;SDS011;33068;51.990;5.926;2023-03-21T10:32:17;21.45;;;7.93;;
47335;SDS011;33068;51.990;5.926;2023-03-21T10:34:48;15.25;;;7.30;;
47335;SDS011;33068;51.990;5.926;2023-03-21T10:37:18;14.32;;;7.40;;
47335;SDS011;33068;51.990;5.926;2023-03-21T10:39:46;18.17;;;7.70;;
47335;SDS011;33068;51.990;5.926;2023-03-21T10:42:17;16.10;;;7.88;;
47335;SDS011;33068;51.990;5.926;2023-03-21T10:44:48;17.23;;;6.97;;
47335;SDS011;33068;51.990;5.926;2023-03-21T10:47:20;15.73;;;6.63;;
47335;SDS011;33068;51.990;5.926;2023-03-21T10:49:53;15.82;;;7.10;;
47335;SDS011;33068;51.990;5.926;2023-03-21T10:52:21;20.95;;;7.47;;
47335;SDS011;33068;51.990;5.926;2023-03-21T10:57:45;15.25;;;6.60;;
47335;SDS011;33068;51.990;5.926;2023-03-21T11:00:17;13.52;;;6.82;;
47335;SDS011;33068;51.990;5.926;2023-03-21T11:02:49;14.83;;;6.93;;
47335;SDS011;33068;51.990;5.926;2023-03-21T11:05:21;11.00;;;6.72;;
47335;SDS011;33068;51.990;5.926;2023-03-21T11:07:58;12.13;;;5.85;;
47335;SDS011;33068;51.990;5.926;2023-03-21T11:10:36;12.65;;;6.45;;
47335;SDS011;33068;51.990;5.926;2023-03-21T11:13:16;16.90;;;6.53;;
47335;SDS011;33068;51.990;5.926;2023-03-21T11:15:51;14.55;;;6.68;;
47335;SDS011;33068;51.990;5.926;2023-03-21T11:18:20;18.38;;;6.45;;
47335;SDS011;33068;51.990;5.926;2023-03-21T11:20:49;11.15;;;5.80;;
47335;SDS011;33068;51.990;5.926;2023-03-21T11:26:48;10.88;;;5.30;;
47335;SDS011;33068;51.990;5.926;2023-03-21T11:29:19;18.13;;;6.13;;
47335;SDS011;33068;51.990;5.926;2023-03-21T11:31:52;9.50;;;5.20;;
47335;SDS011;33068;51.990;5.926;2023-03-21T11:34:27;10.88;;;4.65;;
47335;SDS011;33068;51.990;5.926;2023-03-21T11:37:01;14.77;;;5.32;;
47335;SDS011;33068;51.990;5.926;2023-03-21T11:39:33;14.30;;;5.85;;
47335;SDS011;33068;51.990;5.926;2023-03-21T11:42:08;21.00;;;6.18;;
47335;SDS011;33068;51.990;5.926;2023-03-21T11:45:04;11.88;;;5.30;;
47335;SDS011;33068;51.990;5.926;2023-03-21T11:47:38;13.57;;;6.03;;
47335;SDS011;33068;51.990;5.926;2023-03-21T11:50:15;14.32;;;5.68;;
47335;SDS011;33068;51.990;5.926;2023-03-21T11:52:47;11.73;;;5.18;;
47335;SDS011;33068;51.990;5.926;2023-03-21T11:55:34;12.20;;;5.50;;
47335;SDS011;33068;51.990;5.926;2023-03-21T11:58:24;11.52;;;5.20;;
47335;SDS011;33068;51.990;5.926;2023-03-21T12:01:11;12.32;;;5.72;;
47335;SDS011;33068;51.990;5.926;2023-03-21T12:03:50;16.40;;;6.22;;
47335;SDS011;33068;51.990;5.926;2023-03-21T12:06:34;16.65;;;5.50;;
47335;SDS011;33068;51.990;5.926;2023-03-21T12:09:13;14.75;;;5.40;;
47335;SDS011;33068;51.990;5.926;2023-03-21T12:11:54;10.57;;;4.90;;
47335;SDS011;33068;51.990;5.926;2023-03-21T12:14:35;15.00;;;5.95;;
47335;SDS011;33068;51.990;5.926;2023-03-21T12:17:11;10.70;;;4.90;;
47335;SDS011;33068;51.990;5.926;2023-03-21T12:19:52;13.43;;;6.32;;
47335;SDS011;33068;51.990;5.926;2023-03-21T12:22:32;13.32;;;5.68;;
47335;SDS011;33068;51.990;5.926;2023-03-21T12:25:09;11.20;;;5.35;;
47335;SDS011;33068;51.990;5.926;2023-03-21T12:27:42;9.18;;;5.18;;
47335;SDS011;33068;51.990;5.926;2023-03-21T12:30:30;11.25;;;5.10;;
47335;SDS011;33068;51.990;5.926;2023-03-21T12:33:15;11.10;;;5.05;;
47335;SDS011;33068;51.990;5.926;2023-03-21T12:36:05;18.87;;;5.20;;
47335;SDS011;33068;51.990;5.926;2023-03-21T12:38:46;10.32;;;4.97;;
47335;SDS011;33068;51.990;5.926;2023-03-21T12:41:22;15.35;;;5.13;;
47335;SDS011;33068;51.990;5.926;2023-03-21T12:43:58;15.05;;;4.97;;
47335;SDS011;33068;51.990;5.926;2023-03-21T12:46:31;10.27;;;5.00;;
47335;SDS011;33068;51.990;5.926;2023-03-21T12:49:04;13.20;;;4.90;;
47335;SDS011;33068;51.990;5.926;2023-03-21T12:51:35;14.52;;;4.57;;
47335;SDS011;33068;51.990;5.926;2023-03-21T12:54:13;9.13;;;4.90;;
47335;SDS011;33068;51.990;5.926;2023-03-21T12:56:48;13.05;;;5.50;;
47335;SDS011;33068;51.990;5.926;2023-03-21T12:59:28;7.82;;;4.35;;
47335;SDS011;33068;51.990;5.926;2023-03-21T13:02:13;9.15;;;4.60;;
47335;SDS011;33068;51.990;5.926;2023-03-21T13:04:51;9.98;;;4.38;;
47335;SDS011;33068;51.990;5.926;2023-03-21T13:07:36;12.88;;;5.10;;
47335;SDS011;33068;51.990;5.926;2023-03-21T13:10:13;10.38;;;4.82;;
47335;SDS011;33068;51.990;5.926;2023-03-21T13:12:52;8.18;;;4.18;;
47335;SDS011;33068;51.990;5.926;2023-03-21T13:15:31;9.00;;;5.00;;
47335;SDS011;33068;51.990;5.926;2023-03-21T13:18:16;11.40;;;4.65;;
47335;SDS011;33068;51.990;5.926;2023-03-21T13:20:53;13.02;;;4.72;;
47335;SDS011;33068;51.990;5.926;2023-03-21T13:23:23;11.38;;;4.80;;
47335;SDS011;33068;51.990;5.926;2023-03-21T13:25:52;11.65;;;5.30;;
47335;SDS011;33068;51.990;5.926;2023-03-21T13:28:25;12.50;;;4.72;;
47335;SDS011;33068;51.990;5.926;2023-03-21T13:31:05;9.45;;;4.43;;
47335;SDS011;33068;51.990;5.926;2023-03-21T13:33:47;12.00;;;4.05;;
47335;SDS011;33068;51.990;5.926;2023-03-21T13:36:21;15.88;;;4.05;;
47335;SDS011;33068;51.990;5.926;2023-03-21T13:38:51;9.68;;;3.38;;
47335;SDS011;33068;51.990;5.926;2023-03-21T13:41:37;12.73;;;3.72;;
47335;SDS011;33068;51.990;5.926;2023-03-21T13:44:15;9.18;;;3.88;;
47335;SDS011;33068;51.990;5.926;2023-03-21T13:46:52;9.48;;;3.13;;
47335;SDS011;33068;51.990;5.926;2023-03-21T13:49:27;8.23;;;3.30;;
47335;SDS011;33068;51.990;5.926;2023-03-21T13:52:01;8.30;;;3.00;;
47335;SDS011;33068;51.990;5.926;2023-03-21T13:54:51;6.35;;;3.10;;
47335;SDS011;33068;51.990;5.926;2023-03-21T13:57:35;9.18;;;3.35;;
47335;SDS011;33068;51.990;5.926;2023-03-21T14:00:17;9.35;;;3.28;;
47335;SDS011;33068;51.990;5.926;2023-03-21T14:05:45;7.38;;;2.72;;
47335;SDS011;33068;51.990;5.926;2023-03-21T14:08:24;8.13;;;3.00;;
47335;SDS011;33068;51.990;5.926;2023-03-21T14:10:58;6.72;;;3.40;;
47335;SDS011;33068;51.990;5.926;2023-03-21T14:13:30;11.60;;;4.18;;
47335;SDS011;33068;51.990;5.926;2023-03-21T14:16:09;5.85;;;3.30;;
47335;SDS011;33068;51.990;5.926;2023-03-21T14:18:40;11.50;;;3.25;;
47335;SDS011;33068;51.990;5.926;2023-03-21T14:21:15;11.70;;;3.70;;
47335;SDS011;33068;51.990;5.926;2023-03-21T14:23:54;10.35;;;3.55;;
47335;SDS011;33068;51.990;5.926;2023-03-21T14:26:30;7.13;;;3.60;;
47335;SDS011;33068;51.990;5.926;2023-03-21T14:29:01;10.57;;;3.63;;
47335;SDS011;33068;51.990;5.926;2023-03-21T14:31:29;11.88;;;3.95;;
47335;SDS011;33068;51.990;5.926;2023-03-21T14:34:03;7.28;;;3.35;;
47335;SDS011;33068;51.990;5.926;2023-03-21T14:36:49;9.40;;;3.90;;
47335;SDS011;33068;51.990;5.926;2023-03-21T14:39:19;11.02;;;3.83;;
47335;SDS011;33068;51.990;5.926;2023-03-21T14:41:51;11.70;;;4.63;;
47335;SDS011;33068;51.990;5.926;2023-03-21T14:44:22;12.18;;;3.45;;
47335;SDS011;33068;51.990;5.926;2023-03-21T14:47:01;9.52;;;3.38;;
47335;SDS011;33068;51.990;5.926;2023-03-21T14:49:35;6.57;;;3.15;;
47335;SDS011;33068;51.990;5.926;2023-03-21T14:52:06;7.70;;;3.15;;
47335;SDS011;33068;51.990;5.926;2023-03-21T14:54:37;6.32;;;2.67;;
47335;SDS011;33068;51.990;5.926;2023-03-21T14:57:06;15.90;;;3.35;;
47335;SDS011;33068;51.990;5.926;2023-03-21T14:59:42;8.77;;;2.70;;
47335;SDS011;33068;51.990;5.926;2023-03-21T15:02:41;10.60;;;3.38;;
47335;SDS011;33068;51.990;5.926;2023-03-21T15:05:33;5.13;;;3.10;;
47335;SDS011;33068;51.990;5.926;2023-03-21T15:08:06;4.85;;;3.08;;
47335;SDS011;33068;51.990;5.926;2023-03-21T15:10:39;7.28;;;3.35;;
47335;SDS011;33068;51.990;5.926;2023-03-21T15:13:13;8.02;;;3.00;;
47335;SDS011;33068;51.990;5.926;2023-03-21T15:15:44;6.25;;;3.25;;
47335;SDS011;33068;51.990;5.926;2023-03-21T15:18:13;7.13;;;3.65;;
47335;SDS011;33068;51.990;5.926;2023-03-21T15:20:47;6.72;;;3.50;;
47335;SDS011;33068;51.990;5.926;2023-03-21T15:23:20;10.20;;;3.30;;
47335;SDS011;33068;51.990;5.926;2023-03-21T15:25:54;5.95;;;2.92;;
47335;SDS011;33068;51.990;5.926;2023-03-21T15:28:23;10.30;;;3.40;;
47335;SDS011;33068;51.990;5.926;2023-03-21T15:30:56;5.05;;;3.05;;